Time;durP1;ratioP1;P1;durP2;ratioP2;P2;SDS_P1;SDS_P2;PMS_P1;PMS_P2;Temp;Humidity;BMP_temperature;BMP_pressure;BME280_temperature;BME280_humidity;BME280_pressure;Samples;Min_cycle;Max_cycle;Signal;HPM_P1;HPM_P2
2022/09/29 00:02:06;;;;;;;;;;;4.60;99.90;;;;;;5040523;28;20348;-70
2022/09/29 00:04:31;;;;;;;;;;;4.60;99.90;;;;;;5039561;28;19917;-69
2022/09/29 00:06:57;;;;;;;;;;;4.60;99.90;;;;;;5019469;28;20150;-69
2022/09/29 00:09:22;;;;;;;;;;;4.60;99.90;;;;;;5038572;28;19917;-69
2022/09/29 00:11:48;;;;;;;;;;;4.60;99.90;;;;;;5040297;28;20203;-69
2022/09/29 00:14:13;;;;;;;;;;;4.50;99.90;;;;;;5039320;28;20343;-71
2022/09/29 00:16:39;;;;;;;;;;;4.50;99.90;;;;;;5038339;28;19933;-69
2022/09/29 00:19:04;;;;;;;;;;;4.50;99.90;;;;;;5039491;28;20003;-69
2022/09/29 00:21:30;;;;;;;;;;;4.50;99.90;;;;;;5039751;28;20403;-68
2022/09/29 00:23:55;;;;;;;;;;;4.40;99.90;;;;;;5037816;28;19916;-69
2022/09/29 00:26:22;;;;;;;;;;;4.50;99.90;;;;;;5019146;28;20442;-69
2022/09/29 00:28:51;;;;;;;;;;;4.50;99.90;;;;;;5036322;28;19940;-69
2022/09/29 00:31:17;;;;;;;;;;;4.50;99.90;;;;;;5040169;28;20699;-69
2022/09/29 00:33:42;;;;;;;;;;;4.60;99.90;;;;;;5040071;28;19948;-69
2022/09/29 00:36:11;;;;;;;;;;;4.60;99.90;;;;;;5041326;28;20015;-69
2022/09/29 00:38:37;;;;;;;;;;;4.70;99.90;;;;;;5022674;28;19928;-69
2022/09/29 00:41:03;;;;;;;;;;;4.60;99.90;;;;;;5040180;28;19916;-69
2022/09/29 00:43:58;;;;;;;;;;;4.60;99.90;;;;;;5038401;28;19917;-69
2022/09/29 00:46:24;;;;;;;;;;;4.60;99.90;;;;;;5026756;28;20365;-69
2022/09/29 00:48:50;;;;;;;;;;;4.50;99.90;;;;;;5039559;28;19928;-69
2022/09/29 00:51:16;;;;;;;;;;;4.50;99.90;;;;;;5039236;28;19916;-69
2022/09/29 00:53:42;;;;;;;;;;;4.50;99.90;;;;;;5038167;28;19979;-68
2022/09/29 00:56:11;;;;;;;;;;;4.40;99.90;;;;;;5039387;28;19920;-69
2022/09/29 00:58:39;;;;;;;;;;;4.40;99.90;;;;;;5028693;28;19994;-69
2022/09/29 01:01:05;;;;;;;;;;;4.50;99.90;;;;;;5025828;28;20059;-69
2022/09/29 01:03:34;;;;;;;;;;;4.60;99.90;;;;;;5037089;28;20459;-69
2022/09/29 01:06:01;;;;;;;;;;;4.60;99.90;;;;;;5039329;28;20377;-69
2022/09/29 01:08:38;;;;;;;;;;;4.60;99.90;;;;;;5036009;28;19956;-69
2022/09/29 01:11:04;;;;;;;;;;;4.60;99.90;;;;;;5036671;28;19924;-69
2022/09/29 01:13:30;;;;;;;;;;;4.60;99.90;;;;;;5037298;28;19914;-69
2022/09/29 01:15:56;;;;;;;;;;;4.60;99.90;;;;;;5035114;28;20003;-70
2022/09/29 01:18:22;;;;;;;;;;;4.60;99.90;;;;;;5038041;28;20335;-68
2022/09/29 01:21:01;;;;;;;;;;;4.70;99.90;;;;;;5036284;28;20288;-70
2022/09/29 01:23:46;;;;;;;;;;;4.70;99.90;;;;;;5037269;28;19979;-69
2022/09/29 01:26:15;;;;;;;;;;;4.60;99.90;;;;;;5005627;28;19940;-69
2022/09/29 01:28:59;;;;;;;;;;;4.70;99.90;;;;;;5019740;28;20377;-68
2022/09/29 01:31:25;;;;;;;;;;;4.70;99.90;;;;;;5038827;28;19963;-69
2022/09/29 01:33:58;;;;;;;;;;;4.60;99.90;;;;;;5037983;28;19963;-69
2022/09/29 01:36:36;;;;;;;;;;;4.70;99.90;;;;;;5039036;28;20272;-68
2022/09/29 01:39:04;;;;;;;;;;;4.60;99.90;;;;;;5039181;28;19924;-69
2022/09/29 01:41:48;;;;;;;;;;;4.60;99.90;;;;;;5019611;28;19932;-69
2022/09/29 01:44:14;;;;;;;;;;;4.60;99.90;;;;;;5019956;28;20122;-69
2022/09/29 01:46:55;;;;;;;;;;;4.60;99.90;;;;;;5039555;28;19970;-69
2022/09/29 01:49:21;;;;;;;;;;;4.60;99.90;;;;;;5029774;28;19913;-69
2022/09/29 01:51:55;;;;;;;;;;;4.60;99.90;;;;;;5027770;28;20361;-68
2022/09/29 01:54:27;;;;;;;;;;;4.50;99.90;;;;;;5040208;28;19970;-69
2022/09/29 01:57:00;;;;;;;;;;;4.50;99.90;;;;;;5047610;28;20319;-69
2022/09/29 01:59:48;;;;;;;;;;;4.60;99.90;;;;;;5054780;28;20007;-69
2022/09/29 02:02:16;;;;;;;;;;;4.60;99.90;;;;;;5025633;28;19929;-69
2022/09/29 02:04:48;;;;;;;;;;;4.60;99.90;;;;;;5036271;28;20378;-70
2022/09/29 02:07:17;;;;;;;;;;;4.60;99.90;;;;;;5039389;28;20059;-70
2022/09/29 02:09:46;;;;;;;;;;;4.60;99.90;;;;;;5039525;28;19917;-69
2022/09/29 02:12:13;;;;;;;;;;;4.60;99.90;;;;;;5023092;28;19940;-70
2022/09/29 02:14:42;;;;;;;;;;;4.70;99.90;;;;;;5039458;28;19920;-70
2022/09/29 02:17:21;;;;;;;;;;;4.70;99.90;;;;;;5043486;28;19913;-70
2022/09/29 02:19:49;;;;;;;;;;;4.60;99.90;;;;;;5023911;28;19940;-69
2022/09/29 02:22:15;;;;;;;;;;;4.60;99.90;;;;;;5042836;28;19943;-70
2022/09/29 02:24:41;;;;;;;;;;;4.60;99.90;;;;;;5024586;28;20368;-69
2022/09/29 02:27:06;;;;;;;;;;;4.60;99.90;;;;;;5040576;28;19916;-70
2022/09/29 02:29:33;;;;;;;;;;;4.60;99.90;;;;;;5041597;28;19955;-70
2022/09/29 02:32:01;;;;;;;;;;;4.60;99.90;;;;;;5043935;28;20285;-70
2022/09/29 02:34:28;;;;;;;;;;;4.60;99.90;;;;;;5043312;28;20263;-70
2022/09/29 02:37:00;;;;;;;;;;;4.60;99.90;;;;;;5038618;28;20451;-70
2022/09/29 02:39:41;;;;;;;;;;;4.60;99.90;;;;;;5023347;28;19939;-70
2022/09/29 02:42:13;;;;;;;;;;;4.60;99.90;;;;;;5038700;28;19991;-70
2022/09/29 02:44:38;;;;;;;;;;;4.60;99.90;;;;;;5026691;28;20316;-70
2022/09/29 02:47:23;;;;;;;;;;;4.70;99.90;;;;;;5039208;28;19913;-70
2022/09/29 02:49:58;;;;;;;;;;;4.60;99.90;;;;;;5033421;28;19936;-70
2022/09/29 02:52:39;;;;;;;;;;;4.60;99.90;;;;;;5023925;28;19921;-69
2022/09/29 02:55:04;;;;;;;;;;;4.60;99.90;;;;;;5033877;28;20088;-70
2022/09/29 02:57:47;;;;;;;;;;;4.60;99.90;;;;;;5040813;28;19916;-70
2022/09/29 03:00:14;;;;;;;;;;;4.60;99.90;;;;;;5040525;28;20320;-70
2022/09/29 03:02:41;;;;;;;;;;;4.60;99.90;;;;;;5040628;28;19944;-69
2022/09/29 03:05:09;;;;;;;;;;;4.60;99.90;;;;;;5041408;28;20025;-70
2022/09/29 03:07:35;;;;;;;;;;;4.60;99.90;;;;;;5041648;28;19917;-70
2022/09/29 03:10:01;;;;;;;;;;;4.60;99.90;;;;;;5040200;28;19928;-69
2022/09/29 03:12:27;;;;;;;;;;;4.60;99.90;;;;;;5040379;28;19917;-70
2022/09/29 03:14:53;;;;;;;;;;;4.60;99.90;;;;;;5038947;28;20639;-69
2022/09/29 03:17:18;;;;;;;;;;;4.60;99.90;;;;;;5041079;28;20493;-70
2022/09/29 03:19:44;;;;;;;;;;;4.70;99.90;;;;;;5041170;28;20172;-70
2022/09/29 03:22:09;;;;;;;;;;;4.70;99.90;;;;;;5032454;28;19929;-70
2022/09/29 03:24:35;;;;;;;;;;;4.60;99.90;;;;;;5039326;28;19917;-70
2022/09/29 03:27:00;;;;;;;;;;;4.60;99.90;;;;;;5039138;28;19926;-70
2022/09/29 03:29:26;;;;;;;;;;;4.60;99.90;;;;;;5039639;28;19928;-70
2022/09/29 03:31:51;;;;;;;;;;;4.60;99.90;;;;;;5043535;28;19978;-70
2022/09/29 03:34:17;;;;;;;;;;;4.60;99.90;;;;;;5047234;28;20207;-70
2022/09/29 03:36:42;;;;;;;;;;;4.50;99.90;;;;;;5040108;28;19924;-69
2022/09/29 03:39:08;;;;;;;;;;;4.50;99.90;;;;;;5038929;28;19917;-71
2022/09/29 03:41:33;;;;;;;;;;;4.50;99.90;;;;;;5028025;28;19917;-70
2022/09/29 03:43:59;;;;;;;;;;;4.40;99.90;;;;;;5032663;28;20431;-70
2022/09/29 03:46:24;;;;;;;;;;;4.40;99.90;;;;;;5040554;28;20294;-70
2022/09/29 03:48:50;;;;;;;;;;;4.30;99.90;;;;;;5040399;28;19912;-70
2022/09/29 03:51:15;;;;;;;;;;;4.30;99.90;;;;;;5022625;28;20003;-69
2022/09/29 03:53:41;;;;;;;;;;;4.20;99.90;;;;;;5041295;28;19924;-70
2022/09/29 03:56:06;;;;;;;;;;;4.30;99.90;;;;;;5038853;28;19916;-70
2022/09/29 03:58:32;;;;;;;;;;;4.20;99.90;;;;;;5041199;28;19949;-70
2022/09/29 04:00:58;;;;;;;;;;;4.20;99.90;;;;;;5042313;28;19916;-70
2022/09/29 04:03:23;;;;;;;;;;;4.20;99.90;;;;;;5040851;28;19935;-70
2022/09/29 04:05:49;;;;;;;;;;;4.10;99.90;;;;;;5052282;28;20245;-70
2022/09/29 04:08:15;;;;;;;;;;;4.10;99.90;;;;;;5023065;28;20384;-69
2022/09/29 04:10:41;;;;;;;;;;;4.10;99.90;;;;;;5039647;28;20292;-70
2022/09/29 04:13:07;;;;;;;;;;;4.00;99.90;;;;;;5041798;28;20015;-70
2022/09/29 04:15:33;;;;;;;;;;;4.00;99.90;;;;;;5041997;28;19921;-70
2022/09/29 04:17:58;;;;;;;;;;;4.00;99.90;;;;;;5042226;28;19923;-70
2022/09/29 04:20:24;;;;;;;;;;;4.00;99.90;;;;;;5040411;28;19940;-69
2022/09/29 04:22:50;;;;;;;;;;;4.00;99.90;;;;;;5042102;28;19925;-70
2022/09/29 04:25:15;;;;;;;;;;;4.00;99.90;;;;;;5039573;28;19920;-70
2022/09/29 04:27:41;;;;;;;;;;;4.00;99.90;;;;;;5041123;28;20068;-69
2022/09/29 04:30:06;;;;;;;;;;;4.00;99.90;;;;;;5041375;28;19917;-70
2022/09/29 04:32:32;;;;;;;;;;;3.90;99.90;;;;;;5041856;28;20418;-70
2022/09/29 04:34:57;;;;;;;;;;;3.80;99.90;;;;;;5025418;28;19923;-70
2022/09/29 04:37:23;;;;;;;;;;;3.80;99.90;;;;;;5037255;28;20152;-70
2022/09/29 04:39:49;;;;;;;;;;;3.80;99.90;;;;;;5038114;28;20338;-70
2022/09/29 04:42:15;;;;;;;;;;;3.90;99.90;;;;;;5039716;28;19947;-70
2022/09/29 04:44:40;;;;;;;;;;;3.90;99.90;;;;;;5039330;28;20315;-70
2022/09/29 04:47:06;;;;;;;;;;;3.90;99.90;;;;;;5039285;28;20058;-70
2022/09/29 04:49:31;;;;;;;;;;;3.90;99.90;;;;;;5039534;28;20148;-70
2022/09/29 04:51:57;;;;;;;;;;;3.80;99.90;;;;;;5040774;28;19963;-69
2022/09/29 04:54:22;;;;;;;;;;;3.80;99.90;;;;;;5038027;28;19921;-70
2022/09/29 04:56:48;;;;;;;;;;;3.90;99.90;;;;;;5025113;28;20368;-70
2022/09/29 04:59:14;;;;;;;;;;;3.90;99.90;;;;;;5011267;28;20382;-70
2022/09/29 05:01:39;;;;;;;;;;;3.90;99.90;;;;;;5038005;28;19925;-69
2022/09/29 05:04:06;;;;;;;;;;;3.90;99.90;;;;;;5019443;28;19932;-70
2022/09/29 05:06:31;;;;;;;;;;;4.00;99.90;;;;;;5038021;28;20189;-70
2022/09/29 05:08:57;;;;;;;;;;;4.00;99.90;;;;;;5034474;28;20069;-70
2022/09/29 05:11:23;;;;;;;;;;;4.10;99.90;;;;;;5021030;28;19970;-70
2022/09/29 05:13:49;;;;;;;;;;;4.10;99.90;;;;;;5038387;28;20129;-70
2022/09/29 05:16:15;;;;;;;;;;;4.10;99.90;;;;;;5038955;28;19917;-70
2022/09/29 05:18:40;;;;;;;;;;;4.00;99.90;;;;;;5039516;28;19924;-70
2022/09/29 05:21:06;;;;;;;;;;;4.10;99.90;;;;;;5037187;28;20364;-70
2022/09/29 05:23:32;;;;;;;;;;;4.10;99.90;;;;;;5038843;28;19932;-70
2022/09/29 05:26:02;;;;;;;;;;;4.00;99.90;;;;;;5039262;28;19913;-70
2022/09/29 05:28:27;;;;;;;;;;;4.00;99.90;;;;;;5030495;28;20014;-70
2022/09/29 05:30:53;;;;;;;;;;;4.00;99.90;;;;;;5032916;28;20007;-70
2022/09/29 05:33:18;;;;;;;;;;;4.10;99.90;;;;;;5038822;28;20129;-70
2022/09/29 05:35:43;;;;;;;;;;;4.00;99.90;;;;;;5039421;28;19966;-70
2022/09/29 05:38:09;;;;;;;;;;;3.90;99.90;;;;;;5038629;28;20357;-70
2022/09/29 05:40:36;;;;;;;;;;;3.80;99.90;;;;;;5038449;28;19916;-71
2022/09/29 05:43:01;;;;;;;;;;;3.80;99.90;;;;;;5039323;28;19924;-71
2022/09/29 05:45:27;;;;;;;;;;;3.70;99.90;;;;;;5038506;28;20395;-70
2022/09/29 05:47:53;;;;;;;;;;;3.70;99.90;;;;;;5037686;28;20269;-70
2022/09/29 05:50:19;;;;;;;;;;;3.60;99.90;;;;;;5037990;28;19957;-70
2022/09/29 05:52:48;;;;;;;;;;;3.60;99.90;;;;;;5040205;28;20331;-69
2022/09/29 05:55:14;;;;;;;;;;;3.60;99.90;;;;;;5039666;28;20371;-69
2022/09/29 05:57:39;;;;;;;;;;;3.60;99.90;;;;;;5041985;28;19940;-69
2022/09/29 06:00:05;;;;;;;;;;;3.60;99.90;;;;;;5038376;28;19912;-70
2022/09/29 06:02:31;;;;;;;;;;;3.50;99.90;;;;;;5056132;28;19959;-69
2022/09/29 06:04:57;;;;;;;;;;;3.50;99.90;;;;;;5056453;28;19988;-69
2022/09/29 06:07:22;;;;;;;;;;;3.50;99.90;;;;;;5042287;28;19951;-69
2022/09/29 06:09:48;;;;;;;;;;;3.50;99.90;;;;;;5037447;28;19920;-71
2022/09/29 06:12:13;;;;;;;;;;;3.60;99.90;;;;;;5024083;28;19913;-69
2022/09/29 06:14:39;;;;;;;;;;;3.70;99.90;;;;;;5022613;28;19917;-70
2022/09/29 06:17:04;;;;;;;;;;;3.70;99.90;;;;;;5031784;28;19956;-69
2022/09/29 06:19:30;;;;;;;;;;;3.80;99.90;;;;;;5038932;28;19916;-69
2022/09/29 06:21:55;;;;;;;;;;;3.90;99.90;;;;;;5029655;28;20436;-69
2022/09/29 06:24:20;;;;;;;;;;;4.00;99.90;;;;;;5009993;28;19925;-69
2022/09/29 06:26:46;;;;;;;;;;;4.10;99.90;;;;;;5038742;28;20368;-69
2022/09/29 06:29:11;;;;;;;;;;;4.20;99.90;;;;;;5035813;28;19916;-68
2022/09/29 06:31:38;;;;;;;;;;;4.30;99.90;;;;;;5037569;28;19917;-70
2022/09/29 06:34:03;;;;;;;;;;;4.40;99.90;;;;;;5042184;28;19920;-69
2022/09/29 06:39:16;;;;;;;;;;;4.60;99.90;;;;;;5032295;28;19939;-69
2022/09/29 06:41:47;;;;;;;;;;;4.90;99.90;;;;;;5039072;28;20559;-69
2022/09/29 06:44:13;;;;;;;;;;;4.90;99.90;;;;;;5038102;28;20137;-68
2022/09/29 06:46:38;;;;;;;;;;;5.00;99.90;;;;;;5047368;28;19919;-69
2022/09/29 06:49:04;;;;;;;;;;;5.20;99.90;;;;;;5034836;28;20007;-70
2022/09/29 06:51:29;;;;;;;;;;;5.40;99.90;;;;;;5038567;28;19920;-69
2022/09/29 06:53:55;;;;;;;;;;;5.40;99.90;;;;;;5023960;28;20008;-70
2022/09/29 06:56:21;;;;;;;;;;;5.40;99.90;;;;;;5042900;28;19917;-69
2022/09/29 06:58:46;;;;;;;;;;;5.40;99.90;;;;;;5039692;28;20018;-70
2022/09/29 07:01:12;;;;;;;;;;;5.40;99.90;;;;;;5037272;28;20017;-69
2022/09/29 07:03:38;;;;;;;;;;;5.40;99.90;;;;;;5039320;28;20483;-70
2022/09/29 07:06:04;;;;;;;;;;;5.40;99.90;;;;;;5047947;28;19924;-70
2022/09/29 07:08:30;;;;;;;;;;;5.50;99.90;;;;;;5055851;28;20304;-70
2022/09/29 07:10:56;;;;;;;;;;;5.40;99.90;;;;;;5039330;28;19920;-70
2022/09/29 07:13:21;;;;;;;;;;;5.50;99.90;;;;;;5041372;28;20574;-70
2022/09/29 07:15:47;;;;;;;;;;;5.60;99.90;;;;;;5038766;28;19970;-69
2022/09/29 07:18:13;;;;;;;;;;;5.60;99.90;;;;;;5036384;28;19920;-69
2022/09/29 07:20:39;;;;;;;;;;;5.70;99.90;;;;;;5015665;28;19928;-70
2022/09/29 07:23:05;;;;;;;;;;;5.80;99.90;;;;;;5028541;28;19929;-70
2022/09/29 07:25:31;;;;;;;;;;;5.80;99.90;;;;;;5038833;28;19917;-69
2022/09/29 07:27:56;;;;;;;;;;;5.90;99.90;;;;;;5032721;28;20789;-69
2022/09/29 07:30:22;;;;;;;;;;;6.00;99.90;;;;;;5033663;28;19917;-69
2022/09/29 07:32:48;;;;;;;;;;;6.00;99.90;;;;;;5039418;28;19983;-69
2022/09/29 07:35:13;;;;;;;;;;;6.10;99.90;;;;;;5041787;28;19920;-69
2022/09/29 07:37:39;;;;;;;;;;;6.20;99.90;;;;;;5041951;28;19913;-70
2022/09/29 07:40:05;;;;;;;;;;;6.40;99.90;;;;;;5040775;28;20422;-69
2022/09/29 07:42:30;;;;;;;;;;;6.50;99.90;;;;;;5031744;28;19924;-69
2022/09/29 07:44:56;;;;;;;;;;;6.60;99.90;;;;;;5032623;28;20191;-69
2022/09/29 07:47:22;;;;;;;;;;;6.70;99.90;;;;;;5034045;28;20092;-69
2022/09/29 07:49:47;;;;;;;;;;;6.90;99.90;;;;;;5033628;28;19939;-69
2022/09/29 07:52:13;;;;;;;;;;;7.10;99.90;;;;;;5030899;28;20061;-70
2022/09/29 07:54:39;;;;;;;;;;;7.30;99.90;;;;;;5026463;28;19916;-69
2022/09/29 07:57:04;;;;;;;;;;;7.60;99.90;;;;;;5029194;28;20410;-69
2022/09/29 07:59:30;;;;;;;;;;;8.00;99.90;;;;;;5040775;28;19920;-69
2022/09/29 08:01:55;;;;;;;;;;;8.80;99.90;;;;;;5029387;28;19921;-70
2022/09/29 08:04:21;;;;;;;;;;;9.30;99.90;;;;;;5029384;28;20066;-70
2022/09/29 08:06:47;;;;;;;;;;;10.20;99.90;;;;;;5032206;28;20052;-70
2022/09/29 08:09:12;;;;;;;;;;;11.80;99.90;;;;;;5041196;28;20453;-69
2022/09/29 08:11:39;;;;;;;;;;;14.90;99.90;;;;;;5037735;28;19965;-68
2022/09/29 08:14:04;;;;;;;;;;;18.00;99.90;;;;;;5029183;28;19917;-68
2022/09/29 08:16:30;;;;;;;;;;;21.10;90.10;;;;;;5038424;28;19928;-68
2022/09/29 08:18:56;;;;;;;;;;;23.80;75.60;;;;;;5034638;28;20123;-69
2022/09/29 08:21:21;;;;;;;;;;;25.70;62.20;;;;;;4684930;28;10000151;-69
2022/09/29 08:23:47;;;;;;;;;;;26.90;55.80;;;;;;5018111;28;19975;-69
2022/09/29 08:26:14;;;;;;;;;;;27.00;53.50;;;;;;5024229;28;19921;-69
2022/09/29 08:28:40;;;;;;;;;;;27.50;51.60;;;;;;5019548;28;19945;-70
2022/09/29 08:31:06;;;;;;;;;;;27.40;50.70;;;;;;5018488;28;19917;-69
2022/09/29 08:33:32;;;;;;;;;;;27.80;48.40;;;;;;5032236;28;19917;-70
2022/09/29 08:35:58;;;;;;;;;;;27.70;48.50;;;;;;5040671;28;19969;-70
2022/09/29 08:38:24;;;;;;;;;;;27.80;47.20;;;;;;5047908;28;19971;-70
2022/09/29 08:40:50;;;;;;;;;;;26.80;45.80;;;;;;5033748;28;20296;-68
2022/09/29 08:43:25;;;;;;;;;;;27.80;44.90;;;;;;5013420;28;19952;-76
2022/09/29 08:46:04;;;;;;;;;;;28.20;44.40;;;;;;5017610;28;19917;-79
2022/09/29 08:48:36;;;;;;;;;;;28.60;44.70;;;;;;5024937;28;20266;-78
2022/09/29 08:51:03;;;;;;;;;;;28.10;45.20;;;;;;5042031;28;20016;-76
2022/09/29 08:53:30;;;;;;;;;;;28.20;45.60;;;;;;5031846;28;19956;-76
2022/09/29 08:56:01;;;;;;;;;;;27.50;45.80;;;;;;5024418;28;20384;-76
2022/09/29 08:58:27;;;;;;;;;;;27.50;45.80;;;;;;5033750;28;19921;-76
2022/09/29 09:00:53;;;;;;;;;;;27.40;46.10;;;;;;5022978;28;20273;-74
2022/09/29 09:03:21;;;;;;;;;;;27.40;44.80;;;;;;5036090;28;19924;-75
2022/09/29 09:05:56;;;;;;;;;;;26.60;43.50;;;;;;5028664;28;20037;-75
2022/09/29 09:08:36;;;;;;;;;;;26.70;46.10;;;;;;5020945;28;20384;-76
2022/09/29 09:11:19;;;;;;;;;;;27.40;46.80;;;;;;5018594;28;19971;-75
2022/09/29 09:14:03;;;;;;;;;;;27.80;45.40;;;;;;5018661;28;19916;-74
2022/09/29 09:16:28;;;;;;;;;;;27.60;46.30;;;;;;5023596;28;19916;-75
2022/09/29 09:19:01;;;;;;;;;;;26.80;46.60;;;;;;5021020;28;20557;-73
2022/09/29 09:21:34;;;;;;;;;;;27.20;46.20;;;;;;5018436;28;19944;-76
2022/09/29 09:24:07;;;;;;;;;;;27.50;47.30;;;;;;5024564;28;19943;-77
2022/09/29 09:26:35;;;;;;;;;;;27.80;46.40;;;;;;5015130;28;21231;-75
2022/09/29 09:29:03;;;;;;;;;;;27.60;46.10;;;;;;5030613;28;19921;-74
2022/09/29 09:31:29;;;;;;;;;;;28.10;43.40;;;;;;5042137;28;20054;-75
2022/09/29 09:33:54;;;;;;;;;;;27.50;47.20;;;;;;5039418;28;20262;-76
2022/09/29 09:36:38;;;;;;;;;;;27.20;48.30;;;;;;5035070;28;19912;-75
2022/09/29 09:39:09;;;;;;;;;;;27.20;45.30;;;;;;5032712;28;19921;-75
2022/09/29 09:41:36;;;;;;;;;;;26.50;47.70;;;;;;5012172;28;19917;-78
2022/09/29 09:44:16;;;;;;;;;;;26.90;47.00;;;;;;5011671;28;19928;-78
2022/09/29 09:46:49;;;;;;;;;;;26.40;48.10;;;;;;5034906;28;20020;-74
2022/09/29 09:49:24;;;;;;;;;;;26.60;46.60;;;;;;5036645;28;19947;-76
2022/09/29 09:52:02;;;;;;;;;;;27.00;47.60;;;;;;5038395;28;19916;-76
2022/09/29 09:54:42;;;;;;;;;;;27.00;48.80;;;;;;5032139;28;20758;-76
2022/09/29 09:57:13;;;;;;;;;;;27.10;45.50;;;;;;5004893;28;19917;-77
2022/09/29 09:59:58;;;;;;;;;;;27.20;46.70;;;;;;5033279;28;20167;-77
2022/09/29 10:02:24;;;;;;;;;;;26.80;48.00;;;;;;5032685;28;19924;-77
2022/09/29 10:04:51;;;;;;;;;;;26.60;46.20;;;;;;5035674;28;20018;-76
2022/09/29 10:07:18;;;;;;;;;;;27.40;49.00;;;;;;5042889;28;19978;-77
2022/09/29 10:09:44;;;;;;;;;;;27.20;46.50;;;;;;5021777;28;19988;-77
2022/09/29 10:12:20;;;;;;;;;;;27.00;47.40;;;;;;5019810;28;19978;-77
2022/09/29 10:14:49;;;;;;;;;;;27.10;48.80;;;;;;5038989;28;19917;-75
2022/09/29 10:17:17;;;;;;;;;;;26.80;46.50;;;;;;5041160;28;19917;-76
2022/09/29 10:19:53;;;;;;;;;;;26.90;48.40;;;;;;5045915;28;19955;-75
2022/09/29 10:22:19;;;;;;;;;;;27.20;45.90;;;;;;5042055;28;19932;-76
2022/09/29 10:24:45;;;;;;;;;;;26.60;49.60;;;;;;5041784;28;19917;-76
2022/09/29 10:27:16;;;;;;;;;;;26.50;45.80;;;;;;5041186;28;19924;-76
2022/09/29 10:29:43;;;;;;;;;;;26.60;51.40;;;;;;5040970;28;20050;-74
2022/09/29 10:32:12;;;;;;;;;;;27.30;49.20;;;;;;5035916;28;20003;-75
2022/09/29 10:34:43;;;;;;;;;;;27.00;47.70;;;;;;5033810;28;20031;-74
2022/09/29 10:37:19;;;;;;;;;;;26.70;49.20;;;;;;5033900;28;20733;-76
2022/09/29 10:39:47;;;;;;;;;;;27.00;44.10;;;;;;5039154;28;19924;-75
2022/09/29 10:42:15;;;;;;;;;;;26.70;49.50;;;;;;5042434;28;19970;-76
2022/09/29 10:44:40;;;;;;;;;;;27.00;48.40;;;;;;5042397;28;19967;-76
2022/09/29 10:47:13;;;;;;;;;;;27.30;47.40;;;;;;5039660;28;19966;-75
2022/09/29 10:49:39;;;;;;;;;;;27.00;46.90;;;;;;5030930;28;19917;-73
2022/09/29 10:52:05;;;;;;;;;;;26.80;47.30;;;;;;5032955;28;19917;-73
2022/09/29 10:54:35;;;;;;;;;;;25.90;46.00;;;;;;5032716;28;19967;-73
2022/09/29 10:57:11;;;;;;;;;;;25.40;46.30;;;;;;5033400;28;19921;-74
2022/09/29 10:59:49;;;;;;;;;;;24.90;47.30;;;;;;5017764;28;20619;-74
2022/09/29 11:02:20;;;;;;;;;;;24.50;49.60;;;;;;5034003;28;19931;-74
2022/09/29 11:04:46;;;;;;;;;;;23.00;49.20;;;;;;5034356;28;19920;-74
2022/09/29 11:07:12;;;;;;;;;;;22.80;56.30;;;;;;5038070;28;19925;-75
2022/09/29 11:09:42;;;;;;;;;;;23.40;52.30;;;;;;5013506;28;20292;-74
2022/09/29 11:12:38;;;;;;;;;;;24.00;47.80;;;;;;5033648;28;20436;-73
2022/09/29 11:15:30;;;;;;;;;;;24.30;49.00;;;;;;5017873;28;19917;-74
2022/09/29 11:17:55;;;;;;;;;;;24.60;49.60;;;;;;5027490;28;19978;-73
2022/09/29 11:20:24;;;;;;;;;;;24.40;47.90;;;;;;5019350;28;20545;-74
2022/09/29 11:22:52;;;;;;;;;;;23.60;48.30;;;;;;5024780;28;19925;-74
2022/09/29 11:25:21;;;;;;;;;;;22.90;54.70;;;;;;5032206;28;19993;-73
2022/09/29 11:27:56;;;;;;;;;;;22.30;57.10;;;;;;5028943;28;20023;-74
2022/09/29 11:30:23;;;;;;;;;;;22.00;58.10;;;;;;5029757;28;20257;-73
2022/09/29 11:32:48;;;;;;;;;;;21.70;56.00;;;;;;5037658;28;19947;-73
2022/09/29 11:35:20;;;;;;;;;;;21.30;56.20;;;;;;5034916;28;20380;-73
2022/09/29 11:38:13;;;;;;;;;;;21.00;58.00;;;;;;5027292;28;19917;-74
2022/09/29 11:40:46;;;;;;;;;;;20.80;58.00;;;;;;5005655;28;19966;-74
2022/09/29 11:43:22;;;;;;;;;;;20.40;53.90;;;;;;5030068;28;19935;-74
2022/09/29 11:46:07;;;;;;;;;;;19.80;58.40;;;;;;5039404;28;19923;-74
2022/09/29 11:48:44;;;;;;;;;;;19.70;64.70;;;;;;5021330;28;19980;-73
2022/09/29 11:51:23;;;;;;;;;;;19.60;57.80;;;;;;5022281;28;19980;-74
2022/09/29 11:53:56;;;;;;;;;;;19.80;58.80;;;;;;5035955;28;19917;-74
2022/09/29 11:56:39;;;;;;;;;;;20.00;59.50;;;;;;5039264;28;19916;-75
2022/09/29 11:59:14;;;;;;;;;;;20.50;57.00;;;;;;5010201;28;19933;-73
2022/09/29 12:01:40;;;;;;;;;;;20.80;55.40;;;;;;5035903;28;19916;-76
2022/09/29 12:04:21;;;;;;;;;;;20.80;55.60;;;;;;5038031;28;20004;-76
2022/09/29 12:06:54;;;;;;;;;;;20.70;49.00;;;;;;5030090;28;19982;-76
2022/09/29 12:09:38;;;;;;;;;;;20.30;60.10;;;;;;5034368;28;19923;-75
2022/09/29 12:12:12;;;;;;;;;;;19.80;57.20;;;;;;5044645;28;19917;-74
2022/09/29 12:14:37;;;;;;;;;;;19.70;59.00;;;;;;5039321;28;19920;-82
2022/09/29 12:17:11;;;;;;;;;;;19.90;62.50;;;;;;5022810;28;19927;-82
2022/09/29 12:19:38;;;;;;;;;;;20.20;61.00;;;;;;5041320;28;19924;-73
2022/09/29 12:22:07;;;;;;;;;;;19.80;57.80;;;;;;5036130;28;19928;-73
2022/09/29 12:24:40;;;;;;;;;;;20.10;67.30;;;;;;5040752;28;19924;-73
2022/09/29 12:27:18;;;;;;;;;;;20.20;56.40;;;;;;5019484;28;19987;-74
2022/09/29 12:29:49;;;;;;;;;;;20.30;56.70;;;;;;5031092;28;19921;-74
2022/09/29 12:32:20;;;;;;;;;;;20.30;61.10;;;;;;5040115;28;19919;-73
2022/09/29 12:34:54;;;;;;;;;;;20.60;56.30;;;;;;5042141;28;19969;-73
2022/09/29 12:37:40;;;;;;;;;;;20.80;61.50;;;;;;5040327;28;20274;-73
2022/09/29 12:40:20;;;;;;;;;;;21.00;57.10;;;;;;5038808;28;20463;-74
2022/09/29 12:43:04;;;;;;;;;;;21.40;58.60;;;;;;4690626;28;10000158;-73
2022/09/29 12:45:50;;;;;;;;;;;21.40;55.00;;;;;;5026747;28;20264;-75
2022/09/29 12:48:34;;;;;;;;;;;21.20;55.50;;;;;;5043256;28;19924;-74
2022/09/29 12:51:01;;;;;;;;;;;20.40;53.60;;;;;;5034128;28;19916;-74
2022/09/29 12:53:31;;;;;;;;;;;19.60;53.80;;;;;;5021549;28;19928;-74
2022/09/29 12:56:24;;;;;;;;;;;18.80;57.50;;;;;;5042140;28;19924;-82
2022/09/29 12:58:52;;;;;;;;;;;18.20;62.30;;;;;;5038255;28;19921;-79
2022/09/29 13:01:28;;;;;;;;;;;17.60;67.70;;;;;;5042415;28;19916;-78
2022/09/29 13:04:03;;;;;;;;;;;17.40;79.00;;;;;;5045865;22;19929;-78
2022/09/29 13:06:43;;;;;;;;;;;17.30;82.20;;;;;;4993653;28;20004;-77
2022/09/29 13:09:18;;;;;;;;;;;17.30;90.30;;;;;;4987504;28;19964;-77
2022/09/29 13:12:09;;;;;;;;;;;17.10;88.20;;;;;;4984705;28;20019;-77
2022/09/29 13:14:53;;;;;;;;;;;16.90;91.50;;;;;;4966397;28;20711;-77
2022/09/29 13:17:37;;;;;;;;;;;16.80;97.20;;;;;;4987045;28;19953;-82
2022/09/29 13:20:15;;;;;;;;;;;16.80;94.80;;;;;;4972768;28;20297;-78
2022/09/29 13:23:03;;;;;;;;;;;17.30;95.70;;;;;;4971796;28;20016;-78
2022/09/29 13:25:48;;;;;;;;;;;17.80;95.70;;;;;;4986053;28;19925;-77
2022/09/29 13:28:22;;;;;;;;;;;18.20;81.20;;;;;;4989027;28;20547;-78
2022/09/29 13:30:47;;;;;;;;;;;18.50;74.20;;;;;;4969857;28;20004;-78
2022/09/29 13:33:19;;;;;;;;;;;18.50;80.90;;;;;;4984852;28;19929;-77
2022/09/29 13:35:46;;;;;;;;;;;18.60;73.50;;;;;;4973312;28;19918;-77
2022/09/29 13:38:23;;;;;;;;;;;18.60;72.00;;;;;;4985936;28;20472;-77
2022/09/29 13:41:07;;;;;;;;;;;18.70;78.40;;;;;;4984684;28;20005;-77
2022/09/29 13:43:38;;;;;;;;;;;18.80;70.40;;;;;;4984707;28;19925;-79
2022/09/29 13:46:22;;;;;;;;;;;18.70;72.90;;;;;;4987943;28;19995;-78
2022/09/29 13:48:52;;;;;;;;;;;18.80;73.90;;;;;;4984480;28;20539;-79
2022/09/29 13:51:22;;;;;;;;;;;18.90;82.50;;;;;;4969374;28;19940;-79
2022/09/29 13:54:07;;;;;;;;;;;19.00;70.00;;;;;;4972391;28;20262;-79
2022/09/29 13:56:33;;;;;;;;;;;18.90;67.50;;;;;;4993506;28;19929;-78
2022/09/29 13:59:00;;;;;;;;;;;18.70;65.30;;;;;;4974088;28;19918;-78
2022/09/29 14:01:33;;;;;;;;;;;18.70;64.00;;;;;;4987665;28;19929;-78
2022/09/29 14:04:18;;;;;;;;;;;18.50;66.30;;;;;;4974676;28;19981;-78
2022/09/29 14:06:45;;;;;;;;;;;18.50;64.10;;;;;;4972206;28;20377;-78
2022/09/29 14:09:13;;;;;;;;;;;18.40;62.90;;;;;;4991624;28;19924;-79
2022/09/29 14:11:41;;;;;;;;;;;18.30;64.80;;;;;;4977678;28;19921;-78
2022/09/29 14:14:15;;;;;;;;;;;18.30;72.90;;;;;;4978118;28;20304;-79
2022/09/29 14:17:00;;;;;;;;;;;18.20;66.90;;;;;;4983271;28;19922;-78
2022/09/29 14:19:34;;;;;;;;;;;18.20;71.50;;;;;;4984551;28;19928;-79
2022/09/29 14:22:00;;;;;;;;;;;18.30;63.70;;;;;;4984651;28;20360;-78
2022/09/29 14:24:35;;;;;;;;;;;18.20;70.70;;;;;;4973417;28;20426;-78
2022/09/29 14:27:14;;;;;;;;;;;18.20;72.70;;;;;;4974292;28;19918;-78
2022/09/29 14:29:46;;;;;;;;;;;18.00;69.40;;;;;;4967394;28;20428;-78
2022/09/29 14:32:18;;;;;;;;;;;17.50;65.50;;;;;;4973592;28;19929;-78
2022/09/29 14:34:44;;;;;;;;;;;17.00;69.20;;;;;;4969712;28;19928;-78
2022/09/29 14:37:17;;;;;;;;;;;16.70;74.70;;;;;;4965926;28;20397;-78
2022/09/29 14:40:26;;;;;;;;;;;16.50;79.10;;;;;;4979435;28;19918;-78
2022/09/29 14:42:28;;;;;;;;;;;16.40;86.00;;;;;;4987735;28;20200;-78